sensor_id;sensor_type;location;lat;lon;timestamp;pressure;altitude;pressure_sealevel;temperature;humidity
73551;BME280;61816;53.582;10.096;2023-06-14T00:01:16;54091.63;;;-144.73;97.29
73551;BME280;61816;53.582;10.096;2023-06-14T00:03:42;54108.03;;;-144.73;99.45
73551;BME280;61816;53.582;10.096;2023-06-14T00:06:07;54118.31;;;-144.73;98.51
73551;BME280;61816;53.582;10.096;2023-06-14T00:08:33;54116.25;;;-144.73;99.54
73551;BME280;61816;53.582;10.096;2023-06-14T00:10:58;54145.00;;;-144.73;99.45
73551;BME280;61816;53.582;10.096;2023-06-14T00:13:24;54128.56;;;-144.73;100.00
73551;BME280;61816;53.582;10.096;2023-06-14T00:15:49;54171.66;;;-144.73;100.00
73551;BME280;61816;53.582;10.096;2023-06-14T00:18:14;54173.72;;;-144.73;100.00
73551;BME280;61816;53.582;10.096;2023-06-14T00:20:40;54147.03;;;-144.73;98.86
73551;BME280;61816;53.582;10.096;2023-06-14T00:23:06;54128.56;;;-144.73;98.91
73551;BME280;61816;53.582;10.096;2023-06-14T00:25:32;54128.56;;;-144.73;100.00
73551;BME280;61816;53.582;10.096;2023-06-14T00:27:57;54120.34;;;-144.73;100.00
73551;BME280;61816;53.582;10.096;2023-06-14T00:30:23;54120.34;;;-144.73;100.00
73551;BME280;61816;53.582;10.096;2023-06-14T00:32:49;54181.94;;;-144.73;100.00
73551;BME280;61816;53.582;10.096;2023-06-14T00:35:15;54145.00;;;-144.73;100.00
73551;BME280;61816;53.582;10.096;2023-06-14T00:37:41;54112.16;;;-144.73;100.00
73551;BME280;61816;53.582;10.096;2023-06-14T00:40:06;54157.31;;;-144.73;100.00
73551;BME280;61816;53.582;10.096;2023-06-14T00:42:32;54145.00;;;-144.73;100.00
73551;BME280;61816;53.582;10.096;2023-06-14T00:44:58;54161.41;;;-144.73;100.00
73551;BME280;61816;53.582;10.096;2023-06-14T00:47:23;54177.81;;;-144.73;100.00
73551;BME280;61816;53.582;10.096;2023-06-14T00:49:53;54116.25;;;-144.73;100.00
73551;BME280;61816;53.582;10.096;2023-06-14T00:52:18;54200.41;;;-144.73;100.00
73551;BME280;61816;53.582;10.096;2023-06-14T00:54:44;54177.81;;;-144.73;100.00
73551;BME280;61816;53.582;10.096;2023-06-14T00:57:10;54145.00;;;-144.73;100.00
73551;BME280;61816;53.582;10.096;2023-06-14T00:59:47;54204.50;;;-144.73;100.00
73551;BME280;61816;53.582;10.096;2023-06-14T01:02:14;54157.31;;;-144.73;100.00
73551;BME280;61816;53.582;10.096;2023-06-14T01:04:45;54153.19;;;-144.73;100.00
73551;BME280;61816;53.582;10.096;2023-06-14T01:10:09;54173.72;;;-144.73;100.00
73551;BME280;61816;53.582;10.096;2023-06-14T01:15:30;54145.00;;;-144.73;100.00
73551;BME280;61816;53.582;10.096;2023-06-14T01:17:56;54149.09;;;-144.73;100.00
73551;BME280;61816;53.582;10.096;2023-06-14T01:20:28;54161.41;;;-144.73;100.00
73551;BME280;61816;53.582;10.096;2023-06-14T01:22:54;54153.19;;;-144.73;100.00
73551;BME280;61816;53.582;10.096;2023-06-14T01:25:21;54108.03;;;-144.73;100.00
73551;BME280;61816;53.582;10.096;2023-06-14T01:28:00;54194.25;;;-144.73;100.00
73551;BME280;61816;53.582;10.096;2023-06-14T01:30:26;54177.81;;;-144.73;100.00
73551;BME280;61816;53.582;10.096;2023-06-14T01:32:53;54116.25;;;-144.73;100.00
73551;BME280;61816;53.582;10.096;2023-06-14T01:35:20;54165.50;;;-144.73;100.00
73551;BME280;61816;53.582;10.096;2023-06-14T01:37:47;54165.50;;;-144.73;100.00
73551;BME280;61816;53.582;10.096;2023-06-14T01:40:14;54120.34;;;-144.73;100.00
73551;BME280;61816;53.582;10.096;2023-06-14T01:42:40;54151.16;;;-144.73;100.00
73551;BME280;61816;53.582;10.096;2023-06-14T01:45:07;54153.19;;;-144.73;100.00
73551;BME280;61816;53.582;10.096;2023-06-14T01:47:34;54095.72;;;-144.73;100.00
73551;BME280;61816;53.582;10.096;2023-06-14T01:50:02;54145.00;;;-144.73;100.00
73551;BME280;61816;53.582;10.096;2023-06-14T01:52:27;54157.31;;;-144.73;100.00
73551;BME280;61816;53.582;10.096;2023-06-14T01:54:53;54186.03;;;-144.73;100.00
73551;BME280;61816;53.582;10.096;2023-06-14T01:57:19;54161.41;;;-144.73;100.00
73551;BME280;61816;53.582;10.096;2023-06-14T01:59:45;54161.41;;;-144.73;100.00
73551;BME280;61816;53.582;10.096;2023-06-14T02:02:14;54157.31;;;-144.73;100.00
73551;BME280;61816;53.582;10.096;2023-06-14T02:04:40;54145.00;;;-144.73;100.00
73551;BME280;61816;53.582;10.096;2023-06-14T02:07:06;54116.25;;;-144.73;100.00
73551;BME280;61816;53.582;10.096;2023-06-14T02:09:31;54128.56;;;-144.73;100.00
73551;BME280;61816;53.582;10.096;2023-06-14T02:11:56;54165.50;;;-144.73;100.00
73551;BME280;61816;53.582;10.096;2023-06-14T02:14:22;54153.19;;;-144.73;100.00
73551;BME280;61816;53.582;10.096;2023-06-14T02:16:48;54120.34;;;-144.73;100.00
73551;BME280;61816;53.582;10.096;2023-06-14T02:19:15;54153.19;;;-144.73;100.00
73551;BME280;61816;53.582;10.096;2023-06-14T02:21:41;54157.31;;;-144.73;100.00
73551;BME280;61816;53.582;10.096;2023-06-14T02:24:07;54136.78;;;-144.73;100.00
73551;BME280;61816;53.582;10.096;2023-06-14T02:26:32;54120.34;;;-144.73;100.00
73551;BME280;61816;53.582;10.096;2023-06-14T02:28:58;54157.31;;;-144.73;100.00
73551;BME280;61816;53.582;10.096;2023-06-14T02:31:23;54206.56;;;-144.73;100.00
73551;BME280;61816;53.582;10.096;2023-06-14T02:33:48;54173.72;;;-144.73;100.00
73551;BME280;61816;53.582;10.096;2023-06-14T02:36:14;54149.09;;;-144.73;100.00
73551;BME280;61816;53.582;10.096;2023-06-14T02:38:39;54169.63;;;-144.73;100.00
73551;BME280;61816;53.582;10.096;2023-06-14T02:41:04;54165.50;;;-144.73;100.00
73551;BME280;61816;53.582;10.096;2023-06-14T02:43:31;54198.34;;;-144.73;100.00
73551;BME280;61816;53.582;10.096;2023-06-14T02:45:56;54167.56;;;-144.73;100.00
73551;BME280;61816;53.582;10.096;2023-06-14T02:48:21;54173.72;;;-144.73;100.00
73551;BME280;61816;53.582;10.096;2023-06-14T02:50:46;54145.00;;;-144.73;100.00
73551;BME280;61816;53.582;10.096;2023-06-14T02:53:12;54165.50;;;-144.73;100.00
73551;BME280;61816;53.582;10.096;2023-06-14T02:55:37;54169.63;;;-144.73;100.00
73551;BME280;61816;53.582;10.096;2023-06-14T02:58:05;54161.41;;;-144.73;100.00
73551;BME280;61816;53.582;10.096;2023-06-14T03:00:30;54169.63;;;-144.73;100.00
73551;BME280;61816;53.582;10.096;2023-06-14T03:02:56;54116.25;;;-144.73;100.00
73551;BME280;61816;53.582;10.096;2023-06-14T03:05:21;54149.09;;;-144.73;100.00
73551;BME280;61816;53.582;10.096;2023-06-14T03:07:48;54177.81;;;-144.73;100.00
73551;BME280;61816;53.582;10.096;2023-06-14T03:10:15;54161.41;;;-144.73;100.00
73551;BME280;61816;53.582;10.096;2023-06-14T03:12:41;54206.56;;;-144.73;100.00
73551;BME280;61816;53.582;10.096;2023-06-14T03:15:06;54157.31;;;-144.73;100.00
73551;BME280;61816;53.582;10.096;2023-06-14T03:17:32;54165.50;;;-144.73;100.00
73551;BME280;61816;53.582;10.096;2023-06-14T03:19:59;54165.50;;;-144.73;100.00
73551;BME280;61816;53.582;10.096;2023-06-14T03:22:25;54120.34;;;-144.73;100.00
73551;BME280;61816;53.582;10.096;2023-06-14T03:24:51;54194.25;;;-144.73;100.00
73551;BME280;61816;53.582;10.096;2023-06-14T03:27:17;54188.09;;;-144.73;100.00
73551;BME280;61816;53.582;10.096;2023-06-14T03:29:43;54155.25;;;-144.73;100.00
73551;BME280;61816;53.582;10.096;2023-06-14T03:32:09;54132.69;;;-144.73;100.00
73551;BME280;61816;53.582;10.096;2023-06-14T03:34:34;54190.13;;;-144.73;100.00
73551;BME280;61816;53.582;10.096;2023-06-14T03:37:00;54218.88;;;-144.73;100.00
73551;BME280;61816;53.582;10.096;2023-06-14T03:39:26;54177.81;;;-144.73;100.00
73551;BME280;61816;53.582;10.096;2023-06-14T03:41:51;54161.41;;;-144.73;100.00
73551;BME280;61816;53.582;10.096;2023-06-14T03:44:18;54196.28;;;-144.73;100.00
73551;BME280;61816;53.582;10.096;2023-06-14T03:46:46;54190.13;;;-144.73;100.00
73551;BME280;61816;53.582;10.096;2023-06-14T03:49:12;54186.03;;;-144.73;100.00
73551;BME280;61816;53.582;10.096;2023-06-14T03:51:38;54153.19;;;-144.73;100.00
73551;BME280;61816;53.582;10.096;2023-06-14T03:54:05;54194.25;;;-144.73;100.00
73551;BME280;61816;53.582;10.096;2023-06-14T03:56:30;54202.44;;;-144.73;100.00
73551;BME280;61816;53.582;10.096;2023-06-14T03:58:55;54177.81;;;-144.73;100.00
73551;BME280;61816;53.582;10.096;2023-06-14T04:01:21;54165.50;;;-144.73;100.00
73551;BME280;61816;53.582;10.096;2023-06-14T04:03:50;54177.81;;;-144.73;100.00
73551;BME280;61816;53.582;10.096;2023-06-14T04:06:15;54206.56;;;-144.73;100.00
73551;BME280;61816;53.582;10.096;2023-06-14T04:08:44;54181.94;;;-144.73;100.00
73551;BME280;61816;53.582;10.096;2023-06-14T04:11:11;54202.44;;;-144.73;100.00
73551;BME280;61816;53.582;10.096;2023-06-14T04:13:36;54194.25;;;-144.73;100.00
73551;BME280;61816;53.582;10.096;2023-06-14T04:16:03;54202.44;;;-144.73;100.00
73551;BME280;61816;53.582;10.096;2023-06-14T04:18:28;54210.66;;;-144.73;100.00
73551;BME280;61816;53.582;10.096;2023-06-14T04:20:53;54194.25;;;-144.73;100.00
73551;BME280;61816;53.582;10.096;2023-06-14T04:23:19;54186.03;;;-144.73;100.00
73551;BME280;61816;53.582;10.096;2023-06-14T04:25:44;54159.34;;;-144.73;100.00
73551;BME280;61816;53.582;10.096;2023-06-14T04:28:14;54169.63;;;-144.73;100.00
73551;BME280;61816;53.582;10.096;2023-06-14T04:30:43;54186.03;;;-144.73;100.00
73551;BME280;61816;53.582;10.096;2023-06-14T04:33:10;54194.25;;;-144.73;100.00
73551;BME280;61816;53.582;10.096;2023-06-14T04:35:36;54173.72;;;-144.73;100.00
73551;BME280;61816;53.582;10.096;2023-06-14T04:38:03;54157.31;;;-144.73;100.00
73551;BME280;61816;53.582;10.096;2023-06-14T04:40:30;54200.41;;;-144.73;100.00
73551;BME280;61816;53.582;10.096;2023-06-14T04:42:56;54157.31;;;-144.73;100.00
73551;BME280;61816;53.582;10.096;2023-06-14T04:45:22;54177.81;;;-144.73;100.00
73551;BME280;61816;53.582;10.096;2023-06-14T04:47:49;54190.13;;;-144.73;100.00
73551;BME280;61816;53.582;10.096;2023-06-14T04:50:15;54165.50;;;-144.73;100.00
73551;BME280;61816;53.582;10.096;2023-06-14T04:52:43;54157.31;;;-144.73;100.00
73551;BME280;61816;53.582;10.096;2023-06-14T04:55:08;54210.66;;;-144.73;100.00
73551;BME280;61816;53.582;10.096;2023-06-14T04:57:34;54177.81;;;-144.73;100.00
73551;BME280;61816;53.582;10.096;2023-06-14T05:00:00;54177.81;;;-144.73;100.00
73551;BME280;61816;53.582;10.096;2023-06-14T05:02:29;54145.00;;;-144.73;100.00
73551;BME280;61816;53.582;10.096;2023-06-14T05:04:55;54186.03;;;-144.73;100.00
73551;BME280;61816;53.582;10.096;2023-06-14T05:07:22;54153.19;;;-144.73;100.00
73551;BME280;61816;53.582;10.096;2023-06-14T05:09:49;54188.09;;;-144.73;100.00
73551;BME280;61816;53.582;10.096;2023-06-14T05:12:14;54165.50;;;-144.73;100.00
73551;BME280;61816;53.582;10.096;2023-06-14T05:14:43;54190.13;;;-144.73;100.00
73551;BME280;61816;53.582;10.096;2023-06-14T05:17:08;54202.44;;;-144.73;100.00
73551;BME280;61816;53.582;10.096;2023-06-14T05:19:34;54145.00;;;-144.73;100.00
73551;BME280;61816;53.582;10.096;2023-06-14T05:22:00;54190.13;;;-144.73;100.00
73551;BME280;61816;53.582;10.096;2023-06-14T05:24:28;54161.41;;;-144.73;100.00
73551;BME280;61816;53.582;10.096;2023-06-14T05:26:55;54194.25;;;-144.73;100.00
73551;BME280;61816;53.582;10.096;2023-06-14T05:29:21;54169.63;;;-144.73;100.00
73551;BME280;61816;53.582;10.096;2023-06-14T05:31:46;54218.88;;;-144.73;100.00
73551;BME280;61816;53.582;10.096;2023-06-14T05:34:11;54173.72;;;-144.73;98.61
73551;BME280;61816;53.582;10.096;2023-06-14T05:36:37;54175.78;;;-144.73;97.73
73551;BME280;61816;53.582;10.096;2023-06-14T05:39:02;54194.25;;;-144.73;96.08
73551;BME280;61816;53.582;10.096;2023-06-14T05:41:28;54165.50;;;-144.73;94.37
73551;BME280;61816;53.582;10.096;2023-06-14T05:43:55;54161.41;;;-144.73;94.53
73551;BME280;61816;53.582;10.096;2023-06-14T05:46:21;54225.03;;;-144.73;94.62
73551;BME280;61816;53.582;10.096;2023-06-14T05:48:54;54151.16;;;-144.73;92.37
73551;BME280;61816;53.582;10.096;2023-06-14T05:51:19;54206.56;;;-144.73;92.39
73551;BME280;61816;53.582;10.096;2023-06-14T05:53:48;54177.81;;;-144.73;91.08
73551;BME280;61816;53.582;10.096;2023-06-14T05:56:14;54169.63;;;-144.73;90.98
73551;BME280;61816;53.582;10.096;2023-06-14T05:58:40;54198.34;;;-144.73;89.01
73551;BME280;61816;53.582;10.096;2023-06-14T06:01:06;54181.94;;;-144.73;87.92
73551;BME280;61816;53.582;10.096;2023-06-14T06:03:31;54210.66;;;-144.73;87.58
73551;BME280;61816;53.582;10.096;2023-06-14T06:05:57;54147.03;;;-144.73;86.04
73551;BME280;61816;53.582;10.096;2023-06-14T06:08:23;54188.09;;;-144.73;85.67
73551;BME280;61816;53.582;10.096;2023-06-14T06:10:48;54171.66;;;-144.73;85.69
73551;BME280;61816;53.582;10.096;2023-06-14T06:13:13;54161.41;;;-144.73;84.23
73551;BME280;61816;53.582;10.096;2023-06-14T06:15:39;54173.72;;;-144.73;83.45
73551;BME280;61816;53.582;10.096;2023-06-14T06:18:04;54198.34;;;-144.73;83.63
73551;BME280;61816;53.582;10.096;2023-06-14T06:20:30;54181.94;;;-144.73;83.25
73551;BME280;61816;53.582;10.096;2023-06-14T06:23:00;54161.41;;;-144.73;84.09
73551;BME280;61816;53.582;10.096;2023-06-14T06:25:26;54198.34;;;-144.73;82.58
73551;BME280;61816;53.582;10.096;2023-06-14T06:27:53;54177.81;;;-144.73;82.18
73551;BME280;61816;53.582;10.096;2023-06-14T06:30:19;54171.66;;;-144.73;81.68
73551;BME280;61816;53.582;10.096;2023-06-14T06:32:44;54210.66;;;-144.73;80.93
73551;BME280;61816;53.582;10.096;2023-06-14T06:35:14;54169.63;;;-144.73;79.34
73551;BME280;61816;53.582;10.096;2023-06-14T06:37:41;54159.34;;;-144.73;79.07
73551;BME280;61816;53.582;10.096;2023-06-14T06:40:07;54173.72;;;-144.73;75.27
73551;BME280;61816;53.582;10.096;2023-06-14T06:42:34;54165.50;;;-144.73;74.65
73551;BME280;61816;53.582;10.096;2023-06-14T06:44:59;54157.31;;;-144.73;74.35
73551;BME280;61816;53.582;10.096;2023-06-14T06:47:25;54177.81;;;-144.73;74.67
73551;BME280;61816;53.582;10.096;2023-06-14T06:49:50;54157.31;;;-144.73;72.78
73551;BME280;61816;53.582;10.096;2023-06-14T06:52:16;54149.09;;;-144.73;71.61
73551;BME280;61816;53.582;10.096;2023-06-14T06:54:41;54149.09;;;-144.73;70.39
73551;BME280;61816;53.582;10.096;2023-06-14T06:57:07;54161.41;;;-144.73;71.85
73551;BME280;61816;53.582;10.096;2023-06-14T06:59:33;54177.81;;;-144.73;72.14
73551;BME280;61816;53.582;10.096;2023-06-14T07:01:58;54145.00;;;-144.73;68.35
73551;BME280;61816;53.582;10.096;2023-06-14T07:04:24;54169.63;;;-144.73;67.64
73551;BME280;61816;53.582;10.096;2023-06-14T07:06:49;54179.88;;;-144.73;67.81
73551;BME280;61816;53.582;10.096;2023-06-14T07:09:15;54157.31;;;-144.73;66.06
73551;BME280;61816;53.582;10.096;2023-06-14T07:11:42;54153.19;;;-144.73;66.64
73551;BME280;61816;53.582;10.096;2023-06-14T07:14:07;54161.41;;;-144.73;66.05
73551;BME280;61816;53.582;10.096;2023-06-14T07:16:33;54161.41;;;-144.73;65.75
73551;BME280;61816;53.582;10.096;2023-06-14T07:18:59;54212.72;;;-144.73;64.70
73551;BME280;61816;53.582;10.096;2023-06-14T07:21:25;54157.31;;;-144.73;64.15
73551;BME280;61816;53.582;10.096;2023-06-14T07:23:52;54106.00;;;-144.73;63.92
73551;BME280;61816;53.582;10.096;2023-06-14T07:26:18;54169.63;;;-144.73;62.18
73551;BME280;61816;53.582;10.096;2023-06-14T07:28:43;54116.25;;;-144.73;61.76
73551;BME280;61816;53.582;10.096;2023-06-14T07:31:10;54112.16;;;-144.73;61.30
73551;BME280;61816;53.582;10.096;2023-06-14T07:33:36;54157.31;;;-144.73;62.10
73551;BME280;61816;53.582;10.096;2023-06-14T07:36:02;54126.53;;;-144.73;61.08
73551;BME280;61816;53.582;10.096;2023-06-14T07:38:28;54085.47;;;-144.73;61.53
73551;BME280;61816;53.582;10.096;2023-06-14T07:40:53;54116.25;;;-144.73;59.96
73551;BME280;61816;53.582;10.096;2023-06-14T07:43:19;54149.09;;;-144.73;59.21
73551;BME280;61816;53.582;10.096;2023-06-14T07:45:45;54099.84;;;-144.73;58.97
73551;BME280;61816;53.582;10.096;2023-06-14T07:48:11;54128.56;;;-144.73;58.17
73551;BME280;61816;53.582;10.096;2023-06-14T07:50:36;54177.81;;;-144.73;57.10
73551;BME280;61816;53.582;10.096;2023-06-14T07:53:02;54132.69;;;-144.73;56.97
73551;BME280;61816;53.582;10.096;2023-06-14T07:55:27;54145.00;;;-144.73;56.15
73551;BME280;61816;53.582;10.096;2023-06-14T07:57:54;54079.31;;;-144.73;56.57
73551;BME280;61816;53.582;10.096;2023-06-14T08:00:26;54093.69;;;-144.73;57.12
73551;BME280;61816;53.582;10.096;2023-06-14T08:02:51;54128.56;;;-144.73;55.24
73551;BME280;61816;53.582;10.096;2023-06-14T08:05:23;54145.00;;;-144.73;55.34
73551;BME280;61816;53.582;10.096;2023-06-14T08:07:49;54126.53;;;-144.73;55.87
73551;BME280;61816;53.582;10.096;2023-06-14T08:10:14;54075.22;;;-144.73;53.76
73551;BME280;61816;53.582;10.096;2023-06-14T08:12:40;54095.72;;;-144.73;51.52
73551;BME280;61816;53.582;10.096;2023-06-14T08:15:05;54085.47;;;-144.73;51.27
73551;BME280;61816;53.582;10.096;2023-06-14T08:17:31;54091.63;;;-144.73;50.75
73551;BME280;61816;53.582;10.096;2023-06-14T08:19:56;54108.03;;;-144.73;51.38
73551;BME280;61816;53.582;10.096;2023-06-14T08:22:22;54120.34;;;-144.73;50.79
73551;BME280;61816;53.582;10.096;2023-06-14T08:24:50;54095.72;;;-144.73;50.64
73551;BME280;61816;53.582;10.096;2023-06-14T08:27:16;54087.53;;;-144.73;51.07
73551;BME280;61816;53.582;10.096;2023-06-14T08:29:41;54071.09;;;-144.73;50.50
73551;BME280;61816;53.582;10.096;2023-06-14T08:32:07;54075.22;;;-144.73;50.43
73551;BME280;61816;53.582;10.096;2023-06-14T08:34:32;54124.47;;;-144.73;50.24
73551;BME280;61816;53.582;10.096;2023-06-14T08:36:58;54095.72;;;-144.73;50.43
73551;BME280;61816;53.582;10.096;2023-06-14T08:39:23;54071.09;;;-144.73;51.22
73551;BME280;61816;53.582;10.096;2023-06-14T08:41:49;54097.78;;;-144.73;51.82
73551;BME280;61816;53.582;10.096;2023-06-14T08:44:16;54083.41;;;-144.73;50.86
73551;BME280;61816;53.582;10.096;2023-06-14T08:46:42;54083.41;;;-144.73;49.11
73551;BME280;61816;53.582;10.096;2023-06-14T08:49:11;54087.53;;;-144.73;48.60
73551;BME280;61816;53.582;10.096;2023-06-14T08:51:37;54083.41;;;-144.73;48.59
73551;BME280;61816;53.582;10.096;2023-06-14T08:54:03;54112.16;;;-144.73;48.86
73551;BME280;61816;53.582;10.096;2023-06-14T08:56:30;54071.09;;;-144.73;48.16
73551;BME280;61816;53.582;10.096;2023-06-14T08:58:57;54079.31;;;-144.73;48.13
73551;BME280;61816;53.582;10.096;2023-06-14T09:01:25;54124.47;;;-144.73;49.19
73551;BME280;61816;53.582;10.096;2023-06-14T09:03:52;54073.16;;;-144.73;47.60
73551;BME280;61816;53.582;10.096;2023-06-14T09:06:20;54136.78;;;-144.73;47.25
73551;BME280;61816;53.582;10.096;2023-06-14T09:08:48;54095.72;;;-144.73;48.01
73551;BME280;61816;53.582;10.096;2023-06-14T09:11:15;54112.16;;;-144.73;46.87
73551;BME280;61816;53.582;10.096;2023-06-14T09:13:41;54116.25;;;-144.73;47.15
73551;BME280;61816;53.582;10.096;2023-06-14T09:16:07;54095.72;;;-144.73;47.56
73551;BME280;61816;53.582;10.096;2023-06-14T09:18:35;54067.00;;;-144.73;47.97
73551;BME280;61816;53.582;10.096;2023-06-14T09:21:00;54087.53;;;-144.73;47.33
73551;BME280;61816;53.582;10.096;2023-06-14T09:23:25;54103.94;;;-144.73;45.92
73551;BME280;61816;53.582;10.096;2023-06-14T09:25:51;54040.31;;;-144.73;46.56
73551;BME280;61816;53.582;10.096;2023-06-14T09:28:16;54108.03;;;-144.73;45.91
73551;BME280;61816;53.582;10.096;2023-06-14T09:30:42;54054.69;;;-144.73;45.95
73551;BME280;61816;53.582;10.096;2023-06-14T09:33:07;54073.16;;;-144.73;46.53
73551;BME280;61816;53.582;10.096;2023-06-14T09:35:33;54091.63;;;-144.73;46.57
73551;BME280;61816;53.582;10.096;2023-06-14T09:37:59;54087.53;;;-144.73;46.26
73551;BME280;61816;53.582;10.096;2023-06-14T09:40:25;54067.00;;;-144.73;46.40
73551;BME280;61816;53.582;10.096;2023-06-14T09:42:51;54095.72;;;-144.73;46.47
73551;BME280;61816;53.582;10.096;2023-06-14T09:45:17;54083.41;;;-144.73;44.77
73551;BME280;61816;53.582;10.096;2023-06-14T09:47:48;54095.72;;;-144.73;44.57
73551;BME280;61816;53.582;10.096;2023-06-14T09:50:14;54079.31;;;-144.73;44.41
73551;BME280;61816;53.582;10.096;2023-06-14T09:52:41;54085.47;;;-144.73;44.97
73551;BME280;61816;53.582;10.096;2023-06-14T09:55:12;54067.00;;;-144.73;43.81
73551;BME280;61816;53.582;10.096;2023-06-14T09:57:41;54106.00;;;-144.73;43.04
73551;BME280;61816;53.582;10.096;2023-06-14T10:00:08;54103.94;;;-144.73;42.85
73551;BME280;61816;53.582;10.096;2023-06-14T10:02:37;54034.16;;;-144.73;42.97
73551;BME280;61816;53.582;10.096;2023-06-14T10:05:08;54046.47;;;-144.73;41.68
73551;BME280;61816;53.582;10.096;2023-06-14T10:07:44;54034.16;;;-144.73;42.13
73551;BME280;61816;53.582;10.096;2023-06-14T10:10:13;54101.88;;;-144.73;41.22
73551;BME280;61816;53.582;10.096;2023-06-14T10:12:39;54099.84;;;-144.73;42.73
73551;BME280;61816;53.582;10.096;2023-06-14T10:15:09;54058.78;;;-144.73;42.80
73551;BME280;61816;53.582;10.096;2023-06-14T10:17:52;54067.00;;;-144.73;42.46
73551;BME280;61816;53.582;10.096;2023-06-14T10:20:47;54067.00;;;-144.73;41.58
73551;BME280;61816;53.582;10.096;2023-06-14T10:23:19;54050.59;;;-144.73;40.49
73551;BME280;61816;53.582;10.096;2023-06-14T10:25:50;54075.22;;;-144.73;40.78
73551;BME280;61816;53.582;10.096;2023-06-14T10:28:17;54060.84;;;-144.73;40.89
73551;BME280;61816;53.582;10.096;2023-06-14T10:31:07;54071.09;;;-144.73;40.44
73551;BME280;61816;53.582;10.096;2023-06-14T10:33:34;54120.34;;;-144.73;40.42
73551;BME280;61816;53.582;10.096;2023-06-14T10:38:57;54062.91;;;-144.73;39.95
73551;BME280;61816;53.582;10.096;2023-06-14T10:41:22;54044.44;;;-144.73;39.31
73551;BME280;61816;53.582;10.096;2023-06-14T10:43:48;54042.38;;;-144.73;38.54
73551;BME280;61816;53.582;10.096;2023-06-14T10:46:17;54112.16;;;-144.73;38.45
73551;BME280;61816;53.582;10.096;2023-06-14T10:48:45;54097.78;;;-144.73;38.97
73551;BME280;61816;53.582;10.096;2023-06-14T10:51:20;54054.69;;;-144.73;40.16
73551;BME280;61816;53.582;10.096;2023-06-14T10:53:51;54091.63;;;-144.73;40.63
73551;BME280;61816;53.582;10.096;2023-06-14T10:56:29;54050.59;;;-144.73;39.88
73551;BME280;61816;53.582;10.096;2023-06-14T10:58:57;54099.84;;;-144.73;40.25
73551;BME280;61816;53.582;10.096;2023-06-14T11:01:35;54058.78;;;-144.73;38.99
73551;BME280;61816;53.582;10.096;2023-06-14T11:04:09;54046.47;;;-144.73;38.16
73551;BME280;61816;53.582;10.096;2023-06-14T11:06:45;54058.78;;;-144.73;38.47
73551;BME280;61816;53.582;10.096;2023-06-14T11:09:20;54087.53;;;-144.73;38.22
73551;BME280;61816;53.582;10.096;2023-06-14T11:11:48;54126.53;;;-144.73;40.08
73551;BME280;61816;53.582;10.096;2023-06-14T11:14:15;54091.63;;;-144.73;40.29
73551;BME280;61816;53.582;10.096;2023-06-14T11:16:40;54126.53;;;-144.73;39.63
73551;BME280;61816;53.582;10.096;2023-06-14T11:19:06;54095.72;;;-144.73;40.43
73551;BME280;61816;53.582;10.096;2023-06-14T11:21:32;54034.16;;;-144.73;40.82
73551;BME280;61816;53.582;10.096;2023-06-14T11:23:58;54122.41;;;-144.73;38.70
73551;BME280;61816;53.582;10.096;2023-06-14T11:26:27;54108.03;;;-144.73;40.09
73551;BME280;61816;53.582;10.096;2023-06-14T11:28:58;54050.59;;;-144.73;39.66
73551;BME280;61816;53.582;10.096;2023-06-14T11:31:24;54054.69;;;-144.73;38.85
73551;BME280;61816;53.582;10.096;2023-06-14T11:33:50;54128.56;;;-144.73;39.83
73551;BME280;61816;53.582;10.096;2023-06-14T11:36:16;54132.69;;;-144.73;40.32
73551;BME280;61816;53.582;10.096;2023-06-14T11:38:42;54103.94;;;-144.73;41.96
73551;BME280;61816;53.582;10.096;2023-06-14T11:41:07;54169.63;;;-144.73;41.56
73551;BME280;61816;53.582;10.096;2023-06-14T11:43:32;54106.00;;;-144.73;41.79
73551;BME280;61816;53.582;10.096;2023-06-14T11:46:00;54091.63;;;-144.73;41.56
73551;BME280;61816;53.582;10.096;2023-06-14T11:48:38;54067.00;;;-144.73;40.04
73551;BME280;61816;53.582;10.096;2023-06-14T11:51:04;54067.00;;;-144.73;39.85
73551;BME280;61816;53.582;10.096;2023-06-14T11:53:30;54042.38;;;-144.73;38.81
73551;BME280;61816;53.582;10.096;2023-06-14T11:55:56;53997.22;;;-144.73;36.94
73551;BME280;61816;53.582;10.096;2023-06-14T11:58:22;53997.22;;;-144.73;35.45
73551;BME280;61816;53.582;10.096;2023-06-14T12:00:50;54019.78;;;-144.73;33.29
73551;BME280;61816;53.582;10.096;2023-06-14T12:03:16;54050.59;;;-144.73;34.05
73551;BME280;61816;53.582;10.096;2023-06-14T12:05:42;54099.84;;;-144.73;35.00
73551;BME280;61816;53.582;10.096;2023-06-14T12:08:08;54071.09;;;-144.73;37.08
73551;BME280;61816;53.582;10.096;2023-06-14T12:10:41;54126.53;;;-144.73;36.60
73551;BME280;61816;53.582;10.096;2023-06-14T12:13:09;54106.00;;;-144.73;37.34
73551;BME280;61816;53.582;10.096;2023-06-14T12:15:35;54112.16;;;-144.73;38.02
73551;BME280;61816;53.582;10.096;2023-06-14T12:18:01;54108.03;;;-144.73;38.57
73551;BME280;61816;53.582;10.096;2023-06-14T12:20:30;54157.31;;;-144.73;38.94
73551;BME280;61816;53.582;10.096;2023-06-14T12:22:58;54087.53;;;-144.73;40.03
73551;BME280;61816;53.582;10.096;2023-06-14T12:25:26;54030.06;;;-144.73;38.62
73551;BME280;61816;53.582;10.096;2023-06-14T12:27:57;54054.69;;;-144.73;36.74
73551;BME280;61816;53.582;10.096;2023-06-14T12:30:22;54048.53;;;-144.73;35.90
73551;BME280;61816;53.582;10.096;2023-06-14T12:32:47;54042.38;;;-144.73;35.75